sensor_id;sensor_type;location;lat;lon;timestamp;pressure;altitude;pressure_sealevel;temperature;humidity
46718;BME280;32448;44.960;-0.698;2023-05-07T00:02:12;101556.72;;;15.80;100.00
46718;BME280;32448;44.960;-0.698;2023-05-07T00:04:39;101560.22;;;15.81;100.00
46718;BME280;32448;44.960;-0.698;2023-05-07T00:07:07;101564.63;;;15.79;100.00
46718;BME280;32448;44.960;-0.698;2023-05-07T00:09:35;101564.59;;;15.74;100.00
46718;BME280;32448;44.960;-0.698;2023-05-07T00:12:02;101561.03;;;15.71;100.00
46718;BME280;32448;44.960;-0.698;2023-05-07T00:14:30;101573.31;;;15.67;100.00
46718;BME280;32448;44.960;-0.698;2023-05-07T00:16:57;101574.03;;;15.54;100.00
46718;BME280;32448;44.960;-0.698;2023-05-07T00:19:25;101580.16;;;15.51;100.00
46718;BME280;32448;44.960;-0.698;2023-05-07T00:21:52;101582.72;;;15.47;100.00
46718;BME280;32448;44.960;-0.698;2023-05-07T00:24:20;101581.84;;;15.43;100.00
46718;BME280;32448;44.960;-0.698;2023-05-07T00:26:48;101580.91;;;15.40;100.00
46718;BME280;32448;44.960;-0.698;2023-05-07T00:29:15;101581.69;;;15.29;100.00
46718;BME280;32448;44.960;-0.698;2023-05-07T00:31:42;101579.00;;;15.26;100.00
46718;BME280;32448;44.960;-0.698;2023-05-07T00:34:09;101578.09;;;15.20;100.00
46718;BME280;32448;44.960;-0.698;2023-05-07T00:36:37;101582.38;;;15.13;100.00
46718;BME280;32448;44.960;-0.698;2023-05-07T00:39:04;101575.38;;;15.15;100.00
46718;BME280;32448;44.960;-0.698;2023-05-07T00:41:31;101577.97;;;15.11;100.00
46718;BME280;32448;44.960;-0.698;2023-05-07T00:43:58;101569.22;;;15.15;100.00
46718;BME280;32448;44.960;-0.698;2023-05-07T00:46:26;101568.34;;;15.14;100.00
46718;BME280;32448;44.960;-0.698;2023-05-07T00:48:54;101579.81;;;15.19;100.00
46718;BME280;32448;44.960;-0.698;2023-05-07T00:51:22;101585.06;;;15.18;100.00
46718;BME280;32448;44.960;-0.698;2023-05-07T00:53:50;101595.59;;;15.18;100.00
46718;BME280;32448;44.960;-0.698;2023-05-07T00:56:17;101600.94;;;15.22;100.00
46718;BME280;32448;44.960;-0.698;2023-05-07T00:58:45;101593.91;;;15.24;100.00
46718;BME280;32448;44.960;-0.698;2023-05-07T01:01:12;101591.28;;;15.21;100.00
46718;BME280;32448;44.960;-0.698;2023-05-07T01:03:39;101585.16;;;15.25;100.00
46718;BME280;32448;44.960;-0.698;2023-05-07T01:06:07;101589.53;;;15.22;100.00
46718;BME280;32448;44.960;-0.698;2023-05-07T01:08:36;101582.53;;;15.27;100.00
46718;BME280;32448;44.960;-0.698;2023-05-07T01:11:09;101577.25;;;15.25;100.00
46718;BME280;32448;44.960;-0.698;2023-05-07T01:13:37;101577.25;;;15.27;100.00
46718;BME280;32448;44.960;-0.698;2023-05-07T01:16:05;101578.19;;;15.30;100.00
46718;BME280;32448;44.960;-0.698;2023-05-07T01:18:33;101579.09;;;15.33;100.00
46718;BME280;32448;44.960;-0.698;2023-05-07T01:21:00;101583.47;;;15.32;100.00
46718;BME280;32448;44.960;-0.698;2023-05-07T01:23:28;101593.16;;;15.33;100.00
46718;BME280;32448;44.960;-0.698;2023-05-07T01:25:56;101587.88;;;15.33;100.00
46718;BME280;32448;44.960;-0.698;2023-05-07T01:28:26;101592.28;;;15.37;100.00
46718;BME280;32448;44.960;-0.698;2023-05-07T01:31:00;101589.66;;;15.36;100.00
46718;BME280;32448;44.960;-0.698;2023-05-07T01:33:33;101590.53;;;15.38;100.00
46718;BME280;32448;44.960;-0.698;2023-05-07T01:36:01;101589.66;;;15.37;100.00
46718;BME280;32448;44.960;-0.698;2023-05-07T01:38:33;101587.06;;;15.39;100.00
46718;BME280;32448;44.960;-0.698;2023-05-07T01:41:01;101592.34;;;15.40;100.00
46718;BME280;32448;44.960;-0.698;2023-05-07T01:43:28;101588.84;;;15.41;100.00
46718;BME280;32448;44.960;-0.698;2023-05-07T01:45:57;101598.47;;;15.39;100.00
46718;BME280;32448;44.960;-0.698;2023-05-07T01:48:24;101591.50;;;15.43;100.00
46718;BME280;32448;44.960;-0.698;2023-05-07T01:50:51;101589.75;;;15.43;100.00
46718;BME280;32448;44.960;-0.698;2023-05-07T01:53:19;101595.00;;;15.43;100.00
46718;BME280;32448;44.960;-0.698;2023-05-07T01:55:46;101598.53;;;15.44;100.00
46718;BME280;32448;44.960;-0.698;2023-05-07T01:58:14;101597.69;;;15.46;100.00
46718;BME280;32448;44.960;-0.698;2023-05-07T02:00:41;101604.72;;;15.46;100.00
46718;BME280;32448;44.960;-0.698;2023-05-07T02:03:09;101606.44;;;15.47;100.00
46718;BME280;32448;44.960;-0.698;2023-05-07T02:05:46;101604.69;;;15.47;100.00
46718;BME280;32448;44.960;-0.698;2023-05-07T02:08:32;101610.00;;;15.50;100.00
46718;BME280;32448;44.960;-0.698;2023-05-07T02:11:00;101610.88;;;15.51;100.00
46718;BME280;32448;44.960;-0.698;2023-05-07T02:13:29;101613.53;;;15.51;100.00
46718;BME280;32448;44.960;-0.698;2023-05-07T02:15:56;101599.47;;;15.50;100.00
46718;BME280;32448;44.960;-0.698;2023-05-07T02:18:25;101602.97;;;15.49;100.00
46718;BME280;32448;44.960;-0.698;2023-05-07T02:20:52;101606.53;;;15.53;100.00
46718;BME280;32448;44.960;-0.698;2023-05-07T02:23:19;101610.88;;;15.51;100.00
46718;BME280;32448;44.960;-0.698;2023-05-07T02:25:46;101603.88;;;15.53;100.00
46718;BME280;32448;44.960;-0.698;2023-05-07T02:28:14;101603.94;;;15.54;100.00
46718;BME280;32448;44.960;-0.698;2023-05-07T02:30:48;101601.31;;;15.56;100.00
46718;BME280;32448;44.960;-0.698;2023-05-07T02:33:15;101601.31;;;15.56;100.00
46718;BME280;32448;44.960;-0.698;2023-05-07T02:35:42;101601.34;;;15.59;100.00
46718;BME280;32448;44.960;-0.698;2023-05-07T02:38:11;101599.56;;;15.56;100.00
46718;BME280;32448;44.960;-0.698;2023-05-07T02:40:40;101601.34;;;15.57;100.00
46718;BME280;32448;44.960;-0.698;2023-05-07T02:43:07;101602.19;;;15.58;100.00
46718;BME280;32448;44.960;-0.698;2023-05-07T02:45:35;101599.56;;;15.58;100.00
46718;BME280;32448;44.960;-0.698;2023-05-07T02:48:06;101603.09;;;15.58;100.00
46718;BME280;32448;44.960;-0.698;2023-05-07T02:50:34;101607.50;;;15.59;100.00
46718;BME280;32448;44.960;-0.698;2023-05-07T02:53:01;101606.59;;;15.59;100.00
46718;BME280;32448;44.960;-0.698;2023-05-07T02:55:29;101611.03;;;15.61;100.00
46718;BME280;32448;44.960;-0.698;2023-05-07T02:57:56;101607.47;;;15.58;100.00
46718;BME280;32448;44.960;-0.698;2023-05-07T03:00:25;101606.59;;;15.59;100.00
46718;BME280;32448;44.960;-0.698;2023-05-07T03:03:02;101607.50;;;15.59;100.00
46718;BME280;32448;44.960;-0.698;2023-05-07T03:05:30;101602.25;;;15.61;100.00
46718;BME280;32448;44.960;-0.698;2023-05-07T03:07:57;101606.63;;;15.60;100.00
46718;BME280;32448;44.960;-0.698;2023-05-07T03:10:24;101607.50;;;15.61;100.00
46718;BME280;32448;44.960;-0.698;2023-05-07T03:12:52;101599.59;;;15.59;100.00
46718;BME280;32448;44.960;-0.698;2023-05-07T03:15:19;101604.88;;;15.61;100.00
46718;BME280;32448;44.960;-0.698;2023-05-07T03:17:46;101610.16;;;15.62;100.00
46718;BME280;32448;44.960;-0.698;2023-05-07T03:20:14;101609.28;;;15.62;100.00
46718;BME280;32448;44.960;-0.698;2023-05-07T03:22:42;101608.38;;;15.60;100.00
46718;BME280;32448;44.960;-0.698;2023-05-07T03:25:09;101602.25;;;15.61;100.00
46718;BME280;32448;44.960;-0.698;2023-05-07T03:27:37;101599.59;;;15.61;100.00
46718;BME280;32448;44.960;-0.698;2023-05-07T03:30:05;101605.75;;;15.61;100.00
46718;BME280;32448;44.960;-0.698;2023-05-07T03:32:34;101605.72;;;15.58;100.00
46718;BME280;32448;44.960;-0.698;2023-05-07T03:35:06;101602.19;;;15.58;100.00
46718;BME280;32448;44.960;-0.698;2023-05-07T03:37:34;101611.88;;;15.57;100.00
46718;BME280;32448;44.960;-0.698;2023-05-07T03:40:01;101602.22;;;15.56;100.00
46718;BME280;32448;44.960;-0.698;2023-05-07T03:42:32;101603.97;;;15.59;100.00
46718;BME280;32448;44.960;-0.698;2023-05-07T03:45:00;101603.97;;;15.59;100.00
46718;BME280;32448;44.960;-0.698;2023-05-07T03:47:27;101605.72;;;15.57;100.00
46718;BME280;32448;44.960;-0.698;2023-05-07T03:49:55;101604.81;;;15.55;100.00
46718;BME280;32448;44.960;-0.698;2023-05-07T03:52:23;101601.25;;;15.53;100.00
46718;BME280;32448;44.960;-0.698;2023-05-07T03:54:55;101598.66;;;15.54;100.00
46718;BME280;32448;44.960;-0.698;2023-05-07T03:57:23;101601.25;;;15.53;100.00
46718;BME280;32448;44.960;-0.698;2023-05-07T03:59:51;101595.09;;;15.52;100.00
46718;BME280;32448;44.960;-0.698;2023-05-07T04:02:18;101604.72;;;15.49;100.00
46718;BME280;32448;44.960;-0.698;2023-05-07T04:04:45;101599.44;;;15.49;100.00
46718;BME280;32448;44.960;-0.698;2023-05-07T04:07:13;101610.88;;;15.49;100.00
46718;BME280;32448;44.960;-0.698;2023-05-07T04:09:43;101609.97;;;15.47;100.00
46718;BME280;32448;44.960;-0.698;2023-05-07T04:12:10;101615.28;;;15.52;100.00
46718;BME280;32448;44.960;-0.698;2023-05-07T04:14:37;101608.22;;;15.49;100.00
46718;BME280;32448;44.960;-0.698;2023-05-07T04:17:04;101601.16;;;15.44;100.00
46718;BME280;32448;44.960;-0.698;2023-05-07T04:19:34;101604.66;;;15.43;100.00
46718;BME280;32448;44.960;-0.698;2023-05-07T04:22:01;101602.91;;;15.42;100.00
46718;BME280;32448;44.960;-0.698;2023-05-07T04:24:31;101609.91;;;15.40;100.00
46718;BME280;32448;44.960;-0.698;2023-05-07T04:27:00;101613.44;;;15.42;100.00
46718;BME280;32448;44.960;-0.698;2023-05-07T04:29:28;101609.91;;;15.40;100.00
46718;BME280;32448;44.960;-0.698;2023-05-07T04:31:55;101615.13;;;15.38;100.00
46718;BME280;32448;44.960;-0.698;2023-05-07T04:34:23;101618.63;;;15.37;100.00
46718;BME280;32448;44.960;-0.698;2023-05-07T04:36:50;101619.44;;;15.30;100.00
46718;BME280;32448;44.960;-0.698;2023-05-07T04:39:17;101624.75;;;15.32;100.00
46718;BME280;32448;44.960;-0.698;2023-05-07T04:41:46;101627.34;;;15.28;100.00
46718;BME280;32448;44.960;-0.698;2023-05-07T04:44:14;101627.38;;;15.32;100.00
46718;BME280;32448;44.960;-0.698;2023-05-07T04:46:42;101622.91;;;15.26;100.00
46718;BME280;32448;44.960;-0.698;2023-05-07T04:49:09;101635.22;;;15.28;100.00
46718;BME280;32448;44.960;-0.698;2023-05-07T04:51:37;101631.75;;;15.31;100.00
46718;BME280;32448;44.960;-0.698;2023-05-07T04:54:04;101632.56;;;15.27;100.00
46718;BME280;32448;44.960;-0.698;2023-05-07T04:56:32;101637.88;;;15.30;100.00
46718;BME280;32448;44.960;-0.698;2023-05-07T04:59:00;101632.63;;;15.30;100.00
46718;BME280;32448;44.960;-0.698;2023-05-07T05:01:29;101634.31;;;15.26;100.00
46718;BME280;32448;44.960;-0.698;2023-05-07T05:03:56;101633.44;;;15.26;100.00
46718;BME280;32448;44.960;-0.698;2023-05-07T05:06:24;101633.47;;;15.27;100.00
46718;BME280;32448;44.960;-0.698;2023-05-07T05:08:51;101635.25;;;15.30;100.00
46718;BME280;32448;44.960;-0.698;2023-05-07T05:11:19;101643.19;;;15.32;100.00
46718;BME280;32448;44.960;-0.698;2023-05-07T05:13:47;101629.13;;;15.31;100.00
46718;BME280;32448;44.960;-0.698;2023-05-07T05:16:19;101630.03;;;15.33;100.00
46718;BME280;32448;44.960;-0.698;2023-05-07T05:18:47;101638.84;;;15.37;100.00
46718;BME280;32448;44.960;-0.698;2023-05-07T05:21:17;101648.53;;;15.39;100.00
46718;BME280;32448;44.960;-0.698;2023-05-07T05:23:46;101650.31;;;15.42;100.00
46718;BME280;32448;44.960;-0.698;2023-05-07T05:26:18;101649.44;;;15.43;100.00
46718;BME280;32448;44.960;-0.698;2023-05-07T05:28:45;101659.09;;;15.42;100.00
46718;BME280;32448;44.960;-0.698;2023-05-07T05:31:13;101662.63;;;15.43;100.00
46718;BME280;32448;44.960;-0.698;2023-05-07T05:33:41;101663.53;;;15.45;100.00
46718;BME280;32448;44.960;-0.698;2023-05-07T05:36:14;101659.13;;;15.44;100.00
46718;BME280;32448;44.960;-0.698;2023-05-07T05:38:45;101666.16;;;15.45;100.00
46718;BME280;32448;44.960;-0.698;2023-05-07T05:41:13;101667.03;;;15.47;100.00
46718;BME280;32448;44.960;-0.698;2023-05-07T05:43:40;101674.94;;;15.47;100.00
46718;BME280;32448;44.960;-0.698;2023-05-07T05:46:09;101681.13;;;15.49;100.00
46718;BME280;32448;44.960;-0.698;2023-05-07T05:48:38;101678.47;;;15.47;100.00
46718;BME280;32448;44.960;-0.698;2023-05-07T05:51:06;101683.75;;;15.47;100.00
46718;BME280;32448;44.960;-0.698;2023-05-07T05:53:33;101689.91;;;15.48;100.00
46718;BME280;32448;44.960;-0.698;2023-05-07T05:56:01;101694.31;;;15.49;100.00
46718;BME280;32448;44.960;-0.698;2023-05-07T05:58:30;101695.16;;;15.48;100.00
46718;BME280;32448;44.960;-0.698;2023-05-07T06:01:01;101700.47;;;15.49;100.00
46718;BME280;32448;44.960;-0.698;2023-05-07T06:03:30;101701.38;;;15.51;100.00
46718;BME280;32448;44.960;-0.698;2023-05-07T06:06:03;101707.47;;;15.49;100.00
46718;BME280;32448;44.960;-0.698;2023-05-07T06:08:30;101714.53;;;15.51;100.00
46718;BME280;32448;44.960;-0.698;2023-05-07T06:10:58;101711.97;;;15.54;100.00
46718;BME280;32448;44.960;-0.698;2023-05-07T06:13:27;101719.03;;;15.57;100.00
46718;BME280;32448;44.960;-0.698;2023-05-07T06:15:55;101718.16;;;15.56;100.00
46718;BME280;32448;44.960;-0.698;2023-05-07T06:18:22;101719.03;;;15.58;100.00
46718;BME280;32448;44.960;-0.698;2023-05-07T06:20:49;101718.16;;;15.59;100.00
46718;BME280;32448;44.960;-0.698;2023-05-07T06:23:23;101714.72;;;15.63;100.00
46718;BME280;32448;44.960;-0.698;2023-05-07T06:25:50;101723.59;;;15.72;100.00
46718;BME280;32448;44.960;-0.698;2023-05-07T06:28:22;101713.97;;;15.75;100.00
46718;BME280;32448;44.960;-0.698;2023-05-07T06:30:50;101715.75;;;15.76;100.00
46718;BME280;32448;44.960;-0.698;2023-05-07T06:33:17;101711.34;;;15.77;100.00
46718;BME280;32448;44.960;-0.698;2023-05-07T06:35:46;101707.00;;;15.82;100.00
46718;BME280;32448;44.960;-0.698;2023-05-07T06:38:14;101718.50;;;15.87;100.00
46718;BME280;32448;44.960;-0.698;2023-05-07T06:40:43;101714.16;;;15.90;100.00
46718;BME280;32448;44.960;-0.698;2023-05-07T06:43:10;101710.66;;;15.96;100.00
46718;BME280;32448;44.960;-0.698;2023-05-07T06:45:46;101719.50;;;16.02;100.00
46718;BME280;32448;44.960;-0.698;2023-05-07T06:48:13;101714.31;;;16.09;100.00
46718;BME280;32448;44.960;-0.698;2023-05-07T06:51:01;101717.06;;;16.21;100.00
46718;BME280;32448;44.960;-0.698;2023-05-07T06:53:29;101717.19;;;16.34;100.00
46718;BME280;32448;44.960;-0.698;2023-05-07T06:55:59;101720.78;;;16.47;100.00
46718;BME280;32448;44.960;-0.698;2023-05-07T06:58:26;101725.25;;;16.57;100.00
46718;BME280;32448;44.960;-0.698;2023-05-07T07:00:53;101724.47;;;16.63;100.00
46718;BME280;32448;44.960;-0.698;2023-05-07T07:03:21;101721.06;;;16.78;100.00
46718;BME280;32448;44.960;-0.698;2023-05-07T07:05:51;101721.09;;;16.82;100.00
46718;BME280;32448;44.960;-0.698;2023-05-07T07:08:18;101719.44;;;16.99;100.00
46718;BME280;32448;44.960;-0.698;2023-05-07T07:10:48;101717.69;;;17.04;100.00
46718;BME280;32448;44.960;-0.698;2023-05-07T07:13:15;101724.78;;;17.10;100.00
46718;BME280;32448;44.960;-0.698;2023-05-07T07:15:43;101725.69;;;17.18;100.00
46718;BME280;32448;44.960;-0.698;2023-05-07T07:18:10;101725.72;;;17.21;100.00
46718;BME280;32448;44.960;-0.698;2023-05-07T07:20:38;101731.00;;;17.20;100.00
46718;BME280;32448;44.960;-0.698;2023-05-07T07:23:07;101728.34;;;17.17;100.00
46718;BME280;32448;44.960;-0.698;2023-05-07T07:25:34;101735.44;;;17.28;100.00
46718;BME280;32448;44.960;-0.698;2023-05-07T07:28:02;101731.06;;;17.36;100.00
46718;BME280;32448;44.960;-0.698;2023-05-07T07:30:30;101731.09;;;17.39;100.00
46718;BME280;32448;44.960;-0.698;2023-05-07T07:32:59;101730.22;;;17.43;100.00
46718;BME280;32448;44.960;-0.698;2023-05-07T07:35:33;101735.56;;;17.54;100.00
46718;BME280;32448;44.960;-0.698;2023-05-07T07:38:02;101724.97;;;17.59;100.00
46718;BME280;32448;44.960;-0.698;2023-05-07T07:40:29;101730.28;;;17.59;100.00
46718;BME280;32448;44.960;-0.698;2023-05-07T07:42:57;101735.53;;;17.51;100.00
46718;BME280;32448;44.960;-0.698;2023-05-07T07:45:24;101742.56;;;17.47;100.00
46718;BME280;32448;44.960;-0.698;2023-05-07T07:47:52;101731.13;;;17.48;100.00
46718;BME280;32448;44.960;-0.698;2023-05-07T07:50:19;101736.34;;;17.33;100.00
46718;BME280;32448;44.960;-0.698;2023-05-07T07:53:07;101743.41;;;17.39;100.00
46718;BME280;32448;44.960;-0.698;2023-05-07T07:55:38;101745.25;;;17.58;100.00
46718;BME280;32448;44.960;-0.698;2023-05-07T07:58:07;101733.00;;;17.71;100.00
46718;BME280;32448;44.960;-0.698;2023-05-07T08:00:37;101741.88;;;17.97;100.00
46718;BME280;32448;44.960;-0.698;2023-05-07T08:03:05;101746.31;;;18.00;100.00
46718;BME280;32448;44.960;-0.698;2023-05-07T08:05:38;101744.53;;;17.99;100.00
46718;BME280;32448;44.960;-0.698;2023-05-07T08:08:06;101753.31;;;17.92;100.00
46718;BME280;32448;44.960;-0.698;2023-05-07T08:10:35;101749.84;;;18.17;100.00
46718;BME280;32448;44.960;-0.698;2023-05-07T08:13:11;101749.84;;;18.34;100.00
46718;BME280;32448;44.960;-0.698;2023-05-07T08:15:40;101747.25;;;18.60;100.00
46718;BME280;32448;44.960;-0.698;2023-05-07T08:18:07;101757.84;;;18.63;100.00
46718;BME280;32448;44.960;-0.698;2023-05-07T08:20:35;101758.72;;;18.71;100.00
46718;BME280;32448;44.960;-0.698;2023-05-07T08:23:11;101749.03;;;18.64;100.00
46718;BME280;32448;44.960;-0.698;2023-05-07T08:25:39;101756.06;;;18.71;100.00
46718;BME280;32448;44.960;-0.698;2023-05-07T08:28:07;101766.66;;;18.69;100.00
46718;BME280;32448;44.960;-0.698;2023-05-07T08:30:37;101757.81;;;18.90;100.00
46718;BME280;32448;44.960;-0.698;2023-05-07T08:33:05;101762.22;;;19.05;100.00
46718;BME280;32448;44.960;-0.698;2023-05-07T08:35:32;101758.66;;;19.19;100.00
46718;BME280;32448;44.960;-0.698;2023-05-07T08:37:59;101764.81;;;19.32;100.00
46718;BME280;32448;44.960;-0.698;2023-05-07T08:40:27;101761.34;;;19.06;100.00
46718;BME280;32448;44.960;-0.698;2023-05-07T08:42:57;101749.84;;;19.10;100.00
46718;BME280;32448;44.960;-0.698;2023-05-07T08:45:25;101756.91;;;19.21;100.00
46718;BME280;32448;44.960;-0.698;2023-05-07T08:47:55;101755.91;;;19.47;100.00
46718;BME280;32448;44.960;-0.698;2023-05-07T08:50:30;101752.28;;;19.75;100.00
46718;BME280;32448;44.960;-0.698;2023-05-07T08:52:58;101754.13;;;19.56;100.00
46718;BME280;32448;44.960;-0.698;2023-05-07T08:55:27;101759.41;;;19.66;100.00
46718;BME280;32448;44.960;-0.698;2023-05-07T08:57:56;101767.25;;;19.85;100.00
46718;BME280;32448;44.960;-0.698;2023-05-07T09:00:23;101771.69;;;19.88;100.00
46718;BME280;32448;44.960;-0.698;2023-05-07T09:02:53;101769.88;;;19.94;100.00
46718;BME280;32448;44.960;-0.698;2023-05-07T09:05:20;101770.75;;;19.93;100.00
46718;BME280;32448;44.960;-0.698;2023-05-07T09:07:49;101769.00;;;19.89;100.00
46718;BME280;32448;44.960;-0.698;2023-05-07T09:10:21;101774.34;;;19.86;100.00
46718;BME280;32448;44.960;-0.698;2023-05-07T09:12:49;101776.16;;;19.74;100.00
46718;BME280;32448;44.960;-0.698;2023-05-07T09:15:20;101784.13;;;19.69;100.00
46718;BME280;32448;44.960;-0.698;2023-05-07T09:17:50;101786.88;;;19.39;100.00
46718;BME280;32448;44.960;-0.698;2023-05-07T09:20:17;101786.78;;;19.68;100.00
46718;BME280;32448;44.960;-0.698;2023-05-07T09:22:45;101790.25;;;19.86;100.00
46718;BME280;32448;44.960;-0.698;2023-05-07T09:25:14;101791.97;;;19.90;100.00
46718;BME280;32448;44.960;-0.698;2023-05-07T09:27:42;101798.28;;;19.73;100.00
46718;BME280;32448;44.960;-0.698;2023-05-07T09:30:09;101792.13;;;19.63;100.00
46718;BME280;32448;44.960;-0.698;2023-05-07T09:32:37;101790.25;;;19.83;100.00
46718;BME280;32448;44.960;-0.698;2023-05-07T09:35:15;101791.09;;;19.88;100.00
46718;BME280;32448;44.960;-0.698;2023-05-07T09:37:47;101789.31;;;19.98;100.00
46718;BME280;32448;44.960;-0.698;2023-05-07T09:40:27;101794.69;;;19.86;100.00
46718;BME280;32448;44.960;-0.698;2023-05-07T09:43:08;101787.56;;;19.92;100.00
46718;BME280;32448;44.960;-0.698;2023-05-07T09:45:36;101785.78;;;19.99;100.00
46718;BME280;32448;44.960;-0.698;2023-05-07T09:48:05;101791.03;;;20.02;100.00
46718;BME280;32448;44.960;-0.698;2023-05-07T09:50:35;101791.91;;;20.06;100.00
46718;BME280;32448;44.960;-0.698;2023-05-07T09:53:03;101788.44;;;19.97;100.00
46718;BME280;32448;44.960;-0.698;2023-05-07T09:55:31;101782.88;;;20.40;100.00
46718;BME280;32448;44.960;-0.698;2023-05-07T09:57:58;101791.47;;;20.73;100.00
46718;BME280;32448;44.960;-0.698;2023-05-07T10:00:27;101781.53;;;20.94;100.00
46718;BME280;32448;44.960;-0.698;2023-05-07T10:03:02;101784.03;;;21.10;100.00
46718;BME280;32448;44.960;-0.698;2023-05-07T10:05:43;101784.94;;;21.05;100.00
46718;BME280;32448;44.960;-0.698;2023-05-07T10:08:14;101780.63;;;20.94;100.00
46718;BME280;32448;44.960;-0.698;2023-05-07T10:10:45;101787.94;;;20.67;100.00
46718;BME280;32448;44.960;-0.698;2023-05-07T10:13:17;101784.31;;;20.81;100.00
46718;BME280;32448;44.960;-0.698;2023-05-07T10:15:49;101787.22;;;20.52;100.00
46718;BME280;32448;44.960;-0.698;2023-05-07T10:18:18;101775.63;;;20.59;100.00
46718;BME280;32448;44.960;-0.698;2023-05-07T10:20:51;101779.06;;;20.71;100.00
46718;BME280;32448;44.960;-0.698;2023-05-07T10:23:22;101783.47;;;20.74;100.00
46718;BME280;32448;44.960;-0.698;2023-05-07T10:25:54;101789.78;;;20.59;100.00
46718;BME280;32448;44.960;-0.698;2023-05-07T10:28:29;101788.78;;;20.76;100.00
46718;BME280;32448;44.960;-0.698;2023-05-07T10:31:01;101790.41;;;20.89;100.00
46718;BME280;32448;44.960;-0.698;2023-05-07T10:33:40;101783.19;;;21.04;100.00
46718;BME280;32448;44.960;-0.698;2023-05-07T10:36:09;101784.13;;;20.99;100.00
46718;BME280;32448;44.960;-0.698;2023-05-07T10:38:36;101782.50;;;20.86;100.00
46718;BME280;32448;44.960;-0.698;2023-05-07T10:41:04;101794.13;;;20.71;100.00
46718;BME280;32448;44.960;-0.698;2023-05-07T10:43:40;101796.94;;;20.51;100.00
46718;BME280;32448;44.960;-0.698;2023-05-07T10:46:11;101797.91;;;20.41;100.00
46718;BME280;32448;44.960;-0.698;2023-05-07T10:51:34;101796.41;;;19.96;100.00
46718;BME280;32448;44.960;-0.698;2023-05-07T10:54:34;101808.84;;;19.88;100.00
46718;BME280;32448;44.960;-0.698;2023-05-07T10:59:54;101799.19;;;19.64;100.00
46718;BME280;32448;44.960;-0.698;2023-05-07T11:05:22;101807.03;;;19.91;100.00
46718;BME280;32448;44.960;-0.698;2023-05-07T11:08:03;101808.72;;;20.05;100.00
46718;BME280;32448;44.960;-0.698;2023-05-07T11:10:55;101802.41;;;20.27;100.00
46718;BME280;32448;44.960;-0.698;2023-05-07T11:13:44;101803.16;;;20.52;100.00
46718;BME280;32448;44.960;-0.698;2023-05-07T11:16:30;101809.09;;;20.83;100.00
46718;BME280;32448;44.960;-0.698;2023-05-07T11:19:09;101810.78;;;20.88;100.00
46718;BME280;32448;44.960;-0.698;2023-05-07T11:21:41;101807.25;;;20.91;100.00
46718;BME280;32448;44.960;-0.698;2023-05-07T11:24:40;101809.91;;;20.91;100.00
46718;BME280;32448;44.960;-0.698;2023-05-07T11:27:15;101818.75;;;20.90;100.00
46718;BME280;32448;44.960;-0.698;2023-05-07T11:29:52;101824.16;;;20.82;100.00
46718;BME280;32448;44.960;-0.698;2023-05-07T11:32:22;101826.78;;;20.87;100.00
46718;BME280;32448;44.960;-0.698;2023-05-07T11:34:52;101820.63;;;20.82;100.00
46718;BME280;32448;44.960;-0.698;2023-05-07T11:37:20;101827.56;;;20.98;100.00
46718;BME280;32448;44.960;-0.698;2023-05-07T11:40:02;101832.13;;;20.84;100.00
46718;BME280;32448;44.960;-0.698;2023-05-07T11:42:31;101831.34;;;20.71;100.00
46718;BME280;32448;44.960;-0.698;2023-05-07T11:44:58;101828.66;;;20.76;100.00
46718;BME280;32448;44.960;-0.698;2023-05-07T11:47:26;101837.50;;;20.75;100.00
46718;BME280;32448;44.960;-0.698;2023-05-07T11:49:53;101820.78;;;20.63;100.00
46718;BME280;32448;44.960;-0.698;2023-05-07T11:52:22;101826.88;;;20.76;100.00
46718;BME280;32448;44.960;-0.698;2023-05-07T11:54:50;101815.22;;;20.89;100.00
46718;BME280;32448;44.960;-0.698;2023-05-07T11:57:20;101820.50;;;20.97;100.00
46718;BME280;32448;44.960;-0.698;2023-05-07T11:59:52;101816.94;;;20.96;100.00
46718;BME280;32448;44.960;-0.698;2023-05-07T12:02:19;101817.72;;;21.07;100.00
46718;BME280;32448;44.960;-0.698;2023-05-07T12:04:46;101810.47;;;21.26;100.00
46718;BME280;32448;44.960;-0.698;2023-05-07T12:07:14;101803.22;;;21.40;100.00
46718;BME280;32448;44.960;-0.698;2023-05-07T12:09:41;101815.59;;;21.43;100.00
46718;BME280;32448;44.960;-0.698;2023-05-07T12:12:09;101818.16;;;21.54;100.00
46718;BME280;32448;44.960;-0.698;2023-05-07T12:14:40;101825.13;;;21.64;100.00
46718;BME280;32448;44.960;-0.698;2023-05-07T12:17:09;101812.00;;;21.49;100.00
46718;BME280;32448;44.960;-0.698;2023-05-07T12:19:37;101819.13;;;21.43;100.00
46718;BME280;32448;44.960;-0.698;2023-05-07T12:22:05;101820.84;;;21.51;100.00
46718;BME280;32448;44.960;-0.698;2023-05-07T12:24:43;101818.25;;;21.44;100.00
46718;BME280;32448;44.960;-0.698;2023-05-07T12:27:11;101819.13;;;21.43;100.00
46718;BME280;32448;44.960;-0.698;2023-05-07T12:29:39;101820.97;;;21.38;100.00
46718;BME280;32448;44.960;-0.698;2023-05-07T12:32:07;101820.16;;;21.32;100.00
46718;BME280;32448;44.960;-0.698;2023-05-07T12:34:39;101829.94;;;21.30;100.00
46718;BME280;32448;44.960;-0.698;2023-05-07T12:37:11;101836.03;;;21.41;100.00
46718;BME280;32448;44.960;-0.698;2023-05-07T12:39:49;101828.16;;;21.30;100.00
46718;BME280;32448;44.960;-0.698;2023-05-07T12:42:16;101836.94;;;21.40;100.00
46718;BME280;32448;44.960;-0.698;2023-05-07T12:44:46;101838.63;;;21.46;100.00
46718;BME280;32448;44.960;-0.698;2023-05-07T12:47:15;101836.59;;;21.69;100.00
46718;BME280;32448;44.960;-0.698;2023-05-07T12:49:44;101834.72;;;21.77;100.00
46718;BME280;32448;44.960;-0.698;2023-05-07T12:52:19;101833.28;;;21.47;100.00